createdAt,value
2019-01-08T00:00:01.027Z,431.05
2019-01-08T00:01:00.987Z,431.63
2019-01-08T00:02:00.998Z,431.28
2019-01-08T00:03:00.975Z,428.27
2019-01-08T00:04:00.971Z,426.39
2019-01-08T00:05:00.969Z,426.89
2019-01-08T00:06:00.949Z,425.68
2019-01-08T00:07:00.942Z,425.98
2019-01-08T00:08:00.916Z,425.98
2019-01-08T00:09:00.914Z,427.71
2019-01-08T00:10:00.899Z,428.31
2019-01-08T00:11:00.891Z,427.53
2019-01-08T00:12:00.881Z,429.28
2019-01-08T00:13:00.865Z,429.71
2019-01-08T00:14:00.885Z,422.42
2019-01-08T00:15:00.857Z,421.91
2019-01-08T00:16:00.832Z,426.91
2019-01-08T00:17:00.849Z,428.68
2019-01-08T00:18:00.821Z,427.10
2019-01-08T00:19:00.814Z,427.89
2019-01-08T00:20:00.798Z,428.46
2019-01-08T00:21:00.772Z,431.17
2019-01-08T00:22:00.768Z,425.98
2019-01-08T00:23:00.789Z,424.92
2019-01-08T00:24:00.743Z,428.90
2019-01-08T00:25:00.740Z,426.90
2019-01-08T00:26:00.725Z,430.56
2019-01-08T00:27:00.702Z,431.17
2019-01-08T00:28:00.712Z,425.03
2019-01-08T00:29:00.685Z,427.98
2019-01-08T00:30:00.683Z,431.96
2019-01-08T00:31:00.676Z,426.26
2019-01-08T00:32:00.674Z,427.81
2019-01-08T00:33:00.675Z,420.44
2019-01-08T00:34:00.655Z,423.22
2019-01-08T00:35:00.633Z,420.91
2019-01-08T00:36:00.622Z,423.03
2019-01-08T00:37:00.609Z,425.79
2019-01-08T00:38:00.590Z,430.12
2019-01-08T00:39:00.592Z,426.56
2019-01-08T00:40:00.573Z,432.59
2019-01-08T00:41:00.571Z,424.02
2019-01-08T00:42:00.543Z,424.06
2019-01-08T00:43:00.546Z,429.56
2019-01-08T00:44:00.531Z,427.69
2019-01-08T00:45:00.558Z,426.15
2019-01-08T00:46:00.511Z,425.68
2019-01-08T00:47:00.499Z,423.98
2019-01-08T00:48:00.478Z,431.01
2019-01-08T00:49:00.489Z,420.57
2019-01-08T00:50:00.466Z,428.95
2019-01-08T00:51:00.471Z,428.42
2019-01-08T00:52:00.441Z,429.06
2019-01-08T00:53:00.424Z,429.80
2019-01-08T00:54:00.442Z,425.57
2019-01-08T00:55:00.418Z,422.47
2019-01-08T00:56:00.446Z,425.64
2019-01-08T00:57:00.388Z,425.22
2019-01-08T00:58:00.378Z,422.02
2019-01-08T00:59:00.354Z,428.04
2019-01-08T01:00:00.356Z,427.04
2019-01-08T01:01:00.363Z,431.97
2019-01-08T01:02:00.333Z,427.01
2019-01-08T01:03:00.338Z,430.85
2019-01-08T01:04:00.317Z,426.63
2019-01-08T01:05:00.289Z,432.25
2019-01-08T01:06:00.283Z,426.39
2019-01-08T01:07:00.297Z,426.93
2019-01-08T01:08:00.277Z,430.93
2019-01-08T01:09:00.263Z,427.63
2019-01-08T01:10:00.255Z,428.68
2019-01-08T01:11:00.230Z,429.65
2019-01-08T01:12:00.258Z,430.08
2019-01-08T01:13:00.202Z,426.46
2019-01-08T01:14:00.195Z,430.05
2019-01-08T01:15:00.192Z,429.71
2019-01-08T01:16:00.185Z,427.80
2019-01-08T01:17:00.171Z,428.35
2019-01-08T01:18:00.174Z,420.39
2019-01-08T01:19:00.141Z,428.51
2019-01-08T01:20:00.177Z,428.83
2019-01-08T01:21:00.128Z,425.67
2019-01-08T01:22:00.134Z,420.49
2019-01-08T01:23:00.130Z,418.76
2019-01-08T01:24:00.088Z,425.40
2019-01-08T01:25:00.106Z,428.46
2019-01-08T01:26:00.064Z,425.69
2019-01-08T01:27:00.062Z,422.95
2019-01-08T01:28:00.049Z,422.15
2019-01-08T01:29:00.490Z,429.68
2019-01-08T01:30:00.026Z,427.76
2019-01-08T01:31:00.017Z,428.54
2019-01-08T01:32:00.002Z,430.98
2019-01-08T01:32:59.999Z,426.87
2019-01-08T01:33:59.996Z,426.78
2019-01-08T01:34:59.985Z,426.12
2019-01-08T01:35:59.970Z,426.89
2019-01-08T01:36:59.948Z,429.75
2019-01-08T01:37:59.927Z,427.94
2019-01-08T01:38:59.956Z,428.31
2019-01-08T01:39:59.919Z,430.33
2019-01-08T01:40:59.912Z,425.15
2019-01-08T01:41:59.900Z,429.98
2019-01-08T01:42:59.898Z,431.04
2019-01-08T01:43:59.865Z,426.34
2019-01-08T01:44:59.878Z,423.87
2019-01-08T01:45:59.847Z,427.38
2019-01-08T01:46:59.855Z,431.26
2019-01-08T01:47:59.866Z,425.53
2019-01-08T01:48:59.837Z,423.39
2019-01-08T01:49:59.827Z,426.69
2019-01-08T01:50:59.813Z,421.37
2019-01-08T01:51:59.791Z,430.99
2019-01-08T01:52:59.777Z,426.80
2019-01-08T01:53:59.762Z,424.46
2019-01-08T01:54:59.771Z,428.41
2019-01-08T01:55:59.739Z,425.29
2019-01-08T01:56:59.728Z,427.92
2019-01-08T01:57:59.710Z,424.54
2019-01-08T01:59:08.120Z,426.59
2019-01-08T02:00:00.709Z,428.07
2019-01-08T02:00:59.693Z,429.43
2019-01-08T02:01:59.708Z,424.19
2019-01-08T02:02:59.665Z,424.13
2019-01-08T02:03:59.653Z,425.14
2019-01-08T02:04:59.674Z,423.60
2019-01-08T02:05:59.637Z,428.74
2019-01-08T02:06:59.633Z,421.96
2019-01-08T02:07:59.609Z,427.31
2019-01-08T02:08:59.593Z,427.13
2019-01-08T02:09:59.589Z,421.45
2019-01-08T02:10:59.602Z,424.73
2019-01-08T02:11:59.580Z,426.09
2019-01-08T02:12:59.562Z,424.15
2019-01-08T02:13:59.545Z,424.32
2019-01-08T02:14:59.552Z,427.01
2019-01-08T02:15:59.542Z,425.06
2019-01-08T02:16:59.504Z,419.36
2019-01-08T02:17:59.492Z,418.82
2019-01-08T02:18:59.513Z,424.29
2019-01-08T02:19:59.484Z,424.72
2019-01-08T02:20:59.514Z,418.57
2019-01-08T02:21:59.456Z,419.09
2019-01-08T02:22:59.450Z,425.92
2019-01-08T02:23:59.433Z,423.17
2019-01-08T02:24:59.425Z,425.74
2019-01-08T02:25:59.418Z,428.12
2019-01-08T02:26:59.424Z,421.88
2019-01-08T02:27:59.392Z,427.11
2019-01-08T02:28:59.383Z,423.54
2019-01-08T02:29:59.369Z,429.14
2019-01-08T02:30:59.385Z,419.31
2019-01-08T02:31:59.359Z,422.75
2019-01-08T02:32:59.355Z,422.61
2019-01-08T02:33:59.332Z,419.49
2019-01-08T02:34:59.305Z,426.76
2019-01-08T02:35:59.306Z,420.38
2019-01-08T02:36:59.286Z,419.26
2019-01-08T02:37:59.293Z,418.22
2019-01-08T02:38:59.280Z,423.87
2019-01-08T02:39:59.258Z,420.14
2019-01-08T02:40:59.239Z,425.17
2019-01-08T02:41:59.363Z,420.94
2019-01-08T02:42:59.251Z,421.73
2019-01-08T02:43:59.262Z,424.97
2019-01-08T02:44:59.214Z,422.94
2019-01-08T02:45:59.225Z,423.17
2019-01-08T02:46:59.183Z,426.15
2019-01-08T02:47:59.211Z,420.41
2019-01-08T02:48:59.158Z,419.62
2019-01-08T02:49:59.151Z,420.25
2019-01-08T02:50:59.149Z,418.53
2019-01-08T02:51:59.138Z,416.84
2019-01-08T02:52:59.127Z,416.90
2019-01-08T02:53:59.133Z,423.81
2019-01-08T02:54:59.093Z,421.99
2019-01-08T02:55:59.086Z,421.76
2019-01-08T02:56:59.079Z,419.31
2019-01-08T02:57:59.075Z,419.81
2019-01-08T02:58:59.052Z,422.99
2019-01-08T02:59:59.068Z,416.13
2019-01-08T03:00:59.027Z,426.35
2019-01-08T03:01:59.014Z,425.98
2019-01-08T03:02:59.020Z,423.43
2019-01-08T03:03:59.019Z,423.52
2019-01-08T03:04:58.995Z,422.52
2019-01-08T03:05:59.010Z,421.16
2019-01-08T03:06:58.963Z,423.51
2019-01-08T03:07:58.953Z,420.59
2019-01-08T03:08:58.941Z,417.86
2019-01-08T03:09:58.949Z,420.85
2019-01-08T03:10:58.947Z,420.37
2019-01-08T03:11:58.929Z,423.41
2019-01-08T03:12:58.892Z,416.53
2019-01-08T03:13:58.888Z,425.71
2019-01-08T03:14:58.888Z,419.80
2019-01-08T03:15:58.893Z,421.43
2019-01-08T03:16:58.866Z,424.77
2019-01-08T03:17:58.857Z,424.38
2019-01-08T03:18:58.838Z,423.57
2019-01-08T03:19:58.815Z,424.40
2019-01-08T03:20:58.828Z,423.33
2019-01-08T03:21:58.813Z,421.84
2019-01-08T03:22:58.798Z,425.48
2019-01-08T03:23:58.787Z,422.31
2019-01-08T03:24:58.781Z,422.32
2019-01-08T03:25:58.785Z,420.31
2019-01-08T03:26:58.764Z,420.38
2019-01-08T03:27:58.744Z,425.38
2019-01-08T03:28:58.729Z,428.05
2019-01-08T03:29:58.727Z,429.65
2019-01-08T03:30:58.730Z,424.24
2019-01-08T03:31:58.792Z,418.36
2019-01-08T03:32:58.677Z,419.32
2019-01-08T03:33:58.682Z,424.56
2019-01-08T03:34:58.673Z,422.53
2019-01-08T03:35:58.653Z,420.14
2019-01-08T03:36:58.668Z,423.00
2019-01-08T03:37:58.630Z,424.28
2019-01-08T03:38:58.614Z,422.01
2019-01-08T03:39:58.604Z,425.35
2019-01-08T03:40:58.625Z,426.54
2019-01-08T03:41:58.602Z,423.04
2019-01-08T03:42:58.581Z,426.84
2019-01-08T03:43:58.568Z,427.68
2019-01-08T03:44:58.552Z,420.57
2019-01-08T03:45:58.547Z,420.68
2019-01-08T03:46:58.536Z,421.71
2019-01-08T03:47:58.552Z,427.46
2019-01-08T03:48:58.515Z,421.30
2019-01-08T03:49:58.512Z,424.38
2019-01-08T03:50:58.492Z,423.18
2019-01-08T03:51:58.480Z,421.15
2019-01-08T03:52:58.488Z,420.27
2019-01-08T03:53:58.452Z,418.98
2019-01-08T03:54:58.445Z,420.69
2019-01-08T03:55:58.436Z,418.56
2019-01-08T03:56:58.423Z,426.41
2019-01-08T03:57:58.417Z,426.05
2019-01-08T03:58:58.415Z,439.70
2019-01-08T03:59:58.386Z,433.13
2019-01-08T04:00:58.386Z,421.08
2019-01-08T04:01:58.370Z,419.97
2019-01-08T04:02:58.385Z,418.62
2019-01-08T04:03:58.350Z,427.22
2019-01-08T04:04:58.329Z,426.07
2019-01-08T04:05:58.324Z,419.44
2019-01-08T04:06:58.319Z,422.98
2019-01-08T04:07:58.304Z,427.59
2019-01-08T04:08:58.310Z,418.80
2019-01-08T04:09:58.290Z,420.35
2019-01-08T04:10:58.287Z,429.24
2019-01-08T04:11:58.257Z,422.15
2019-01-08T04:12:58.240Z,420.16
2019-01-08T04:13:58.264Z,427.75
2019-01-08T04:14:58.228Z,428.39
2019-01-08T04:16:00.171Z,427.61
2019-01-08T04:16:58.207Z,420.45
2019-01-08T04:17:58.187Z,427.38
2019-01-08T04:18:58.185Z,426.18
2019-01-08T04:19:58.208Z,423.42
2019-01-08T04:20:58.169Z,429.23
2019-01-08T04:21:58.156Z,423.26
2019-01-08T04:22:58.139Z,422.81
2019-01-08T04:23:58.125Z,423.07
2019-01-08T04:24:58.163Z,425.23
2019-01-08T04:25:58.106Z,424.15
2019-01-08T04:26:58.106Z,423.93
2019-01-08T04:27:58.089Z,426.60
2019-01-08T04:28:58.082Z,420.98
2019-01-08T04:29:58.085Z,424.13
2019-01-08T04:30:58.060Z,422.45
2019-01-08T04:31:58.035Z,420.10
2019-01-08T04:32:58.038Z,423.88
2019-01-08T04:33:58.024Z,426.92
2019-01-08T04:34:58.004Z,423.58
2019-01-08T04:35:58.039Z,424.79
2019-01-08T04:36:57.987Z,420.76
2019-01-08T04:37:57.973Z,424.30
2019-01-08T04:38:57.978Z,419.14
2019-01-08T04:39:57.965Z,425.98
2019-01-08T04:40:57.951Z,425.72
2019-01-08T04:41:57.957Z,428.76
2019-01-08T04:42:57.914Z,436.73
2019-01-08T04:43:57.913Z,426.11
2019-01-08T04:44:57.899Z,428.42
2019-01-08T04:45:57.901Z,426.54
2019-01-08T04:46:57.906Z,426.97
2019-01-08T04:47:57.877Z,425.78
2019-01-08T04:48:57.852Z,426.46
2019-01-08T04:49:57.839Z,429.42
2019-01-08T04:50:57.843Z,428.66
2019-01-08T04:51:57.863Z,430.25
2019-01-08T04:52:57.820Z,434.15
2019-01-08T04:53:57.800Z,431.36
2019-01-08T04:54:57.800Z,429.14
2019-01-08T04:55:57.789Z,428.67
2019-01-08T04:56:57.757Z,428.39
2019-01-08T04:57:57.785Z,433.11
2019-01-08T04:58:57.754Z,427.58
2019-01-08T04:59:59.089Z,433.87
2019-01-08T05:00:57.735Z,432.53
2019-01-08T05:01:57.732Z,432.63
2019-01-08T05:02:57.696Z,432.74
2019-01-08T05:03:57.712Z,429.04
2019-01-08T05:04:57.692Z,431.35
2019-01-08T05:05:57.677Z,435.00
2019-01-08T05:06:57.653Z,436.18
2019-01-08T05:07:57.659Z,430.66
2019-01-08T05:08:57.653Z,432.04
2019-01-08T05:09:57.624Z,434.90
2019-01-08T05:10:57.628Z,435.23
2019-01-08T05:11:57.617Z,428.42
2019-01-08T05:12:57.595Z,439.14
2019-01-08T05:13:57.611Z,438.57
2019-01-08T05:14:57.562Z,431.87
2019-01-08T05:15:57.558Z,430.35
2019-01-08T05:16:57.550Z,433.36
2019-01-08T05:17:57.533Z,434.09
2019-01-08T05:18:57.541Z,441.07
2019-01-08T05:19:57.548Z,439.31
2019-01-08T05:20:57.504Z,429.13
2019-01-08T05:21:57.494Z,422.76
2019-01-08T05:22:57.493Z,434.62
2019-01-08T05:23:57.482Z,440.27
2019-01-08T05:24:57.471Z,438.70
2019-01-08T05:25:57.482Z,429.99
2019-01-08T05:26:57.443Z,432.99
2019-01-08T05:27:57.455Z,438.74
2019-01-08T05:28:57.415Z,446.55
2019-01-08T05:29:57.412Z,434.38
2019-01-08T05:30:57.404Z,434.23
2019-01-08T05:31:57.399Z,437.15
2019-01-08T05:32:57.380Z,438.61
2019-01-08T05:33:57.399Z,444.91
2019-01-08T05:34:57.351Z,439.67
2019-01-08T05:35:57.341Z,439.14
2019-01-08T05:36:57.341Z,444.07
2019-01-08T05:37:57.325Z,442.87
2019-01-08T05:38:57.306Z,439.78
2019-01-08T05:39:57.308Z,437.09
2019-01-08T05:40:57.285Z,432.76
2019-01-08T05:41:57.302Z,437.53
2019-01-08T05:42:57.279Z,436.34
2019-01-08T05:43:57.268Z,434.55
2019-01-08T05:44:57.254Z,436.06
2019-01-08T05:45:57.242Z,438.31
2019-01-08T05:46:57.214Z,436.56
2019-01-08T05:47:57.235Z,441.58
2019-01-08T05:48:57.205Z,437.86
2019-01-08T05:49:57.191Z,438.56
2019-01-08T05:50:57.190Z,436.77
2019-01-08T05:51:57.192Z,433.13
2019-01-08T05:52:57.176Z,443.52
2019-01-08T05:53:57.143Z,443.48
2019-01-08T05:54:57.144Z,442.84
2019-01-08T05:55:57.129Z,439.59
2019-01-08T05:56:57.122Z,437.44
2019-01-08T05:57:57.147Z,439.13
2019-01-08T05:58:57.093Z,432.02
2019-01-08T05:59:57.089Z,438.85
2019-01-08T06:00:57.066Z,436.02
2019-01-08T06:01:57.061Z,436.85
2019-01-08T06:02:57.063Z,437.23
2019-01-08T06:03:57.070Z,441.69
2019-01-08T06:04:57.040Z,438.78
2019-01-08T06:05:57.027Z,436.45
2019-01-08T06:06:57.003Z,434.20
2019-01-08T06:07:56.990Z,438.52
2019-01-08T06:08:57.010Z,442.01
2019-01-08T06:09:56.971Z,441.99
2019-01-08T06:10:57.020Z,439.01
2019-01-08T06:11:56.952Z,437.24
2019-01-08T06:12:56.945Z,445.15
2019-01-08T06:13:56.947Z,439.51
2019-01-08T06:14:56.940Z,442.96
2019-01-08T06:15:56.941Z,435.32
2019-01-08T06:16:56.907Z,439.16
2019-01-08T06:17:56.891Z,437.55
2019-01-08T06:18:56.953Z,438.20
2019-01-08T06:19:56.877Z,444.99
2019-01-08T06:20:56.861Z,440.05
2019-01-08T06:21:56.855Z,441.12
2019-01-08T06:22:56.853Z,441.84
2019-01-08T06:23:56.844Z,443.52
2019-01-08T06:24:56.847Z,444.24
2019-01-08T06:25:56.822Z,445.83
2019-01-08T06:26:56.812Z,444.30
2019-01-08T06:27:56.798Z,443.96
2019-01-08T06:28:56.785Z,447.14
2019-01-08T06:29:57.071Z,439.88
2019-01-08T06:30:56.756Z,440.98
2019-01-08T06:31:56.752Z,441.17
2019-01-08T06:32:56.721Z,444.92
2019-01-08T06:33:56.717Z,440.37
2019-01-08T06:34:56.735Z,442.79
2019-01-08T06:35:56.783Z,444.43
2019-01-08T06:36:56.724Z,452.70
2019-01-08T06:37:56.677Z,449.94
2019-01-08T06:38:56.663Z,443.69
2019-01-08T06:39:56.661Z,443.48
2019-01-08T06:40:57.675Z,446.65
2019-01-08T06:41:56.633Z,445.21
2019-01-08T06:42:56.615Z,449.11
2019-01-08T06:43:56.605Z,447.19
2019-01-08T06:44:56.622Z,441.58
2019-01-08T06:45:56.583Z,442.51
2019-01-08T06:46:56.585Z,447.81
2019-01-08T06:47:56.585Z,448.93
2019-01-08T06:48:56.555Z,450.01
2019-01-08T06:49:56.541Z,440.68
2019-01-08T06:50:56.583Z,444.62
2019-01-08T06:51:56.513Z,441.17
2019-01-08T06:52:56.514Z,448.03
2019-01-08T06:53:56.488Z,444.86
2019-01-08T06:54:56.508Z,443.37
2019-01-08T06:55:56.506Z,445.25
2019-01-08T06:56:56.459Z,443.16
2019-01-08T06:57:56.450Z,438.68
2019-01-08T06:58:56.441Z,443.63
2019-01-08T06:59:56.439Z,444.26
2019-01-08T07:00:56.446Z,442.05
2019-01-08T07:01:56.444Z,444.01
2019-01-08T07:02:56.395Z,441.73
2019-01-08T07:03:56.378Z,453.07
2019-01-08T07:04:56.372Z,440.10
2019-01-08T07:05:56.378Z,442.87
2019-01-08T07:06:56.373Z,445.70
2019-01-08T07:07:56.368Z,445.47
2019-01-08T07:08:56.331Z,444.26
2019-01-08T07:09:56.322Z,442.85
2019-01-08T07:10:56.307Z,443.54
2019-01-08T07:11:56.326Z,441.09
2019-01-08T07:12:56.318Z,447.19
2019-01-08T07:13:56.285Z,440.67
2019-01-08T07:14:56.262Z,443.88
2019-01-08T07:15:56.259Z,440.77
2019-01-08T07:16:56.241Z,440.34
2019-01-08T07:17:56.252Z,444.87
2019-01-08T07:18:56.228Z,448.35
2019-01-08T07:19:56.233Z,449.20
2019-01-08T07:20:56.205Z,441.93
2019-01-08T07:21:56.207Z,446.66
2019-01-08T07:22:56.185Z,445.22
2019-01-08T07:23:56.161Z,447.70
2019-01-08T07:24:56.185Z,450.64
2019-01-08T07:25:56.145Z,445.89
2019-01-08T07:26:56.138Z,440.43
2019-01-08T07:27:56.160Z,439.88
2019-01-08T07:28:56.121Z,444.90
2019-01-08T07:29:56.099Z,446.62
2019-01-08T07:30:56.096Z,448.82
2019-01-08T07:31:56.084Z,451.99
2019-01-08T07:32:56.072Z,451.98
2019-01-08T07:33:56.086Z,446.89
2019-01-08T07:34:56.058Z,450.02
2019-01-08T07:35:56.033Z,444.09
2019-01-08T07:36:56.023Z,447.51
2019-01-08T07:37:56.013Z,449.58
2019-01-08T07:38:56.050Z,441.87
2019-01-08T07:39:55.996Z,448.27
2019-01-08T07:40:55.988Z,448.69
2019-01-08T07:41:56.003Z,447.45
2019-01-08T07:42:55.963Z,448.13
2019-01-08T07:43:55.943Z,446.12
2019-01-08T07:44:55.966Z,454.84
2019-01-08T07:45:55.928Z,449.24
2019-01-08T07:46:55.909Z,441.98
2019-01-08T07:47:55.916Z,445.38
2019-01-08T07:48:55.894Z,444.43
2019-01-08T07:49:55.887Z,444.95
2019-01-08T07:50:55.906Z,444.06
2019-01-08T07:51:55.874Z,440.33
2019-01-08T07:52:55.864Z,446.77
2019-01-08T07:53:55.855Z,451.26
2019-01-08T07:54:55.824Z,443.40
2019-01-08T07:55:55.823Z,448.97
2019-01-08T07:56:55.806Z,447.49
2019-01-08T07:57:55.816Z,448.41
2019-01-08T07:58:55.810Z,451.09
2019-01-08T07:59:55.784Z,450.83
2019-01-08T08:00:55.779Z,442.44
2019-01-08T08:01:55.764Z,447.64
2019-01-08T08:02:55.751Z,445.42
2019-01-08T08:03:55.744Z,445.13
2019-01-08T08:04:55.729Z,444.75
2019-01-08T08:05:55.749Z,448.96
2019-01-08T08:06:55.727Z,447.43
2019-01-08T08:07:55.684Z,452.60
2019-01-08T08:08:55.683Z,447.25
2019-01-08T08:09:55.660Z,457.35
2019-01-08T08:10:55.665Z,448.29
2019-01-08T08:11:55.756Z,450.03
2019-01-08T08:12:55.676Z,445.24
2019-01-08T08:13:55.629Z,447.83
2019-01-08T08:14:55.610Z,448.37
2019-01-08T08:15:55.597Z,451.51
2019-01-08T08:16:55.607Z,452.18
2019-01-08T08:17:55.614Z,452.19
2019-01-08T08:18:55.560Z,447.70
2019-01-08T08:19:55.561Z,454.72
2019-01-08T08:20:55.558Z,454.46
2019-01-08T08:21:55.530Z,452.54
2019-01-08T08:22:55.559Z,451.45
2019-01-08T08:23:55.518Z,449.85
2019-01-08T08:24:56.013Z,447.22
2019-01-08T08:25:55.499Z,454.23
2019-01-08T08:26:55.483Z,455.57
2019-01-08T08:27:55.460Z,446.58
2019-01-08T08:28:55.492Z,453.64
2019-01-08T08:29:55.458Z,447.92
2019-01-08T08:30:58.783Z,448.16
2019-01-08T08:31:55.437Z,448.93
2019-01-08T08:32:55.418Z,445.01
2019-01-08T08:33:55.399Z,450.55
2019-01-08T08:34:55.418Z,455.61
2019-01-08T08:35:55.391Z,447.47
2019-01-08T08:36:55.377Z,446.98
2019-01-08T08:37:55.373Z,443.87
2019-01-08T08:38:55.344Z,446.85
2019-01-08T08:39:55.362Z,453.03
2019-01-08T08:40:55.330Z,444.78
2019-01-08T08:41:55.317Z,452.30
2019-01-08T08:42:55.332Z,452.60
2019-01-08T08:43:55.309Z,443.65
2019-01-08T08:44:55.334Z,448.64
2019-01-08T08:45:55.284Z,451.95
2019-01-08T08:46:55.259Z,449.60
2019-01-08T08:47:55.249Z,446.16
2019-01-08T08:48:55.247Z,448.95
2019-01-08T08:49:55.229Z,449.68
2019-01-08T08:50:55.248Z,451.04
2019-01-08T08:51:55.210Z,448.87
2019-01-08T08:52:55.190Z,455.18
2019-01-08T08:53:55.188Z,447.32
2019-01-08T08:54:55.199Z,452.85
2019-01-08T08:55:55.213Z,448.44
2019-01-08T08:56:55.169Z,453.00
2019-01-08T08:57:55.167Z,443.15
2019-01-08T08:58:55.127Z,450.18
2019-01-08T08:59:55.116Z,450.34
2019-01-08T09:00:55.128Z,443.82
2019-01-08T09:01:55.117Z,445.31
2019-01-08T09:02:55.097Z,447.28
2019-01-08T09:03:55.087Z,450.63
2019-01-08T09:04:55.107Z,445.45
2019-01-08T09:05:55.061Z,449.08
2019-01-08T09:06:55.083Z,443.27
2019-01-08T09:07:55.052Z,441.99
2019-01-08T09:08:55.041Z,450.87
2019-01-08T09:09:55.018Z,447.48
2019-01-08T09:10:55.019Z,448.68
2019-01-08T09:11:54.990Z,447.15
2019-01-08T09:12:54.978Z,452.77
2019-01-08T09:13:54.985Z,446.93
2019-01-08T09:14:54.983Z,450.01
2019-01-08T09:15:54.962Z,449.55
2019-01-08T09:16:54.957Z,441.65
2019-01-08T09:17:54.936Z,442.34
2019-01-08T09:18:54.945Z,448.59
2019-01-08T09:19:54.914Z,449.56
2019-01-08T09:20:54.905Z,447.70
2019-01-08T09:21:54.884Z,450.20
2019-01-08T09:22:54.874Z,443.48
2019-01-08T09:23:56.101Z,448.15
2019-01-08T09:24:54.847Z,448.31
2019-01-08T09:25:54.846Z,451.04
2019-01-08T09:26:54.835Z,445.50
2019-01-08T09:27:54.820Z,450.85
2019-01-08T09:28:54.811Z,449.07
2019-01-08T09:29:54.828Z,449.74
2019-01-08T09:30:54.777Z,445.15
2019-01-08T09:31:54.781Z,450.81
2019-01-08T09:32:54.755Z,448.63
2019-01-08T09:33:54.753Z,446.28
2019-01-08T09:34:54.772Z,450.94
2019-01-08T09:35:54.738Z,451.80
2019-01-08T09:36:54.723Z,446.20
2019-01-08T09:37:54.714Z,448.63
2019-01-08T09:38:54.697Z,453.13
2019-01-08T09:39:54.693Z,450.01
2019-01-08T09:40:54.707Z,446.14
2019-01-08T09:41:54.677Z,446.35
2019-01-08T09:42:54.649Z,451.43
2019-01-08T09:43:54.640Z,451.79
2019-01-08T09:44:54.633Z,445.21
2019-01-08T09:45:54.641Z,443.59
2019-01-08T09:46:54.623Z,452.64
2019-01-08T09:47:54.603Z,446.04
2019-01-08T09:48:54.606Z,451.72
2019-01-08T09:49:54.583Z,446.84
2019-01-08T09:50:54.585Z,447.47
2019-01-08T09:51:54.624Z,455.12
2019-01-08T09:52:54.566Z,448.34
2019-01-08T09:53:54.545Z,446.73
2019-01-08T09:54:54.521Z,452.26
2019-01-08T09:55:54.528Z,449.36
2019-01-08T09:56:54.500Z,448.91
2019-01-08T09:57:54.491Z,447.79
2019-01-08T09:58:54.509Z,447.66
2019-01-08T09:59:54.472Z,450.24
2019-01-08T10:00:54.475Z,452.03
2019-01-08T10:01:54.472Z,445.10
2019-01-08T10:02:54.429Z,446.27
2019-01-08T10:03:54.430Z,451.52
2019-01-08T10:04:54.413Z,445.43
2019-01-08T10:05:56.473Z,453.29
2019-01-08T10:06:54.427Z,452.78
2019-01-08T10:07:54.386Z,448.80
2019-01-08T10:08:54.369Z,446.35
2019-01-08T10:09:54.363Z,447.81
2019-01-08T10:10:54.350Z,453.37
2019-01-08T10:11:54.344Z,443.29
2019-01-08T10:12:54.356Z,451.42
2019-01-08T10:13:54.319Z,450.92
2019-01-08T10:14:54.308Z,438.01
2019-01-08T10:15:54.289Z,451.16
2019-01-08T10:16:54.289Z,455.28
2019-01-08T10:17:54.272Z,453.70
2019-01-08T10:18:54.289Z,444.39
2019-01-08T10:19:54.257Z,448.79
2019-01-08T10:20:54.258Z,451.05
2019-01-08T10:21:54.236Z,453.03
2019-01-08T10:22:54.222Z,458.13
2019-01-08T10:23:54.270Z,451.01
2019-01-08T10:24:54.255Z,450.03
2019-01-08T10:25:54.190Z,445.84
2019-01-08T10:26:54.180Z,453.27
2019-01-08T10:27:54.167Z,445.78
2019-01-08T10:28:54.192Z,450.83
2019-01-08T10:29:54.145Z,454.88
2019-01-08T10:30:54.157Z,448.61
2019-01-08T10:31:54.126Z,452.07
2019-01-08T10:32:54.115Z,445.05
2019-01-08T10:33:54.121Z,452.42
2019-01-08T10:34:54.103Z,459.05
2019-01-08T10:35:54.170Z,458.50
2019-01-08T10:36:54.056Z,457.57
2019-01-08T10:37:54.041Z,455.29
2019-01-08T10:38:54.067Z,456.89
2019-01-08T10:39:54.070Z,450.72
2019-01-08T10:40:54.032Z,449.67
2019-01-08T10:41:54.019Z,455.55
2019-01-08T10:42:54.024Z,446.73
2019-01-08T10:43:53.999Z,443.97
2019-01-08T10:44:53.989Z,445.92
2019-01-08T10:45:53.993Z,453.24
2019-01-08T10:46:53.944Z,453.22
2019-01-08T10:47:53.952Z,453.44
2019-01-08T10:48:53.937Z,449.44
2019-01-08T10:49:53.921Z,456.53
2019-01-08T10:50:53.934Z,455.54
2019-01-08T10:51:53.924Z,450.87
2019-01-08T10:52:53.908Z,453.17
2019-01-08T10:53:53.898Z,453.83
2019-01-08T10:54:53.872Z,448.24
2019-01-08T10:55:53.877Z,457.43
2019-01-08T10:56:53.850Z,450.02
2019-01-08T10:57:53.839Z,451.32
2019-01-08T10:58:53.831Z,444.90
2019-01-08T10:59:53.826Z,452.66
2019-01-08T11:00:53.827Z,458.10
2019-01-08T11:01:53.792Z,455.04
2019-01-08T11:02:53.817Z,454.70
2019-01-08T11:03:53.776Z,449.89
2019-01-08T11:04:53.762Z,444.97
2019-01-08T11:05:53.782Z,447.38
2019-01-08T11:06:53.749Z,448.02
2019-01-08T11:07:53.728Z,446.97
2019-01-08T11:08:53.716Z,453.32
2019-01-08T11:09:53.699Z,448.96
2019-01-08T11:10:53.705Z,451.68
2019-01-08T11:11:53.706Z,445.97
2019-01-08T11:12:53.676Z,447.92
2019-01-08T11:13:53.654Z,448.37
2019-01-08T11:14:53.663Z,452.61
2019-01-08T11:15:53.654Z,445.29
2019-01-08T11:16:53.674Z,449.86
2019-01-08T11:17:53.626Z,449.88
2019-01-08T11:18:53.699Z,448.61
2019-01-08T11:19:53.599Z,447.45
2019-01-08T11:20:53.583Z,445.90
2019-01-08T11:21:53.575Z,449.29
2019-01-08T11:22:53.591Z,450.09
2019-01-08T11:23:53.565Z,454.29
2019-01-08T11:24:53.596Z,448.45
2019-01-08T11:25:53.539Z,449.61
2019-01-08T11:26:53.519Z,449.30
2019-01-08T11:27:53.535Z,453.63
2019-01-08T11:28:53.510Z,453.78
2019-01-08T11:29:53.504Z,448.86
2019-01-08T11:30:53.473Z,456.89
2019-01-08T11:31:53.467Z,447.10
2019-01-08T11:32:54.800Z,453.29
2019-01-08T11:33:53.445Z,451.76
2019-01-08T11:34:53.465Z,444.32
2019-01-08T11:35:53.431Z,447.23
2019-01-08T11:36:53.418Z,452.96
2019-01-08T11:37:53.409Z,451.41
2019-01-08T11:38:53.383Z,448.63
2019-01-08T11:39:53.394Z,445.86
2019-01-08T11:40:53.366Z,448.92
2019-01-08T11:41:53.358Z,451.29
2019-01-08T11:42:53.349Z,453.33
2019-01-08T11:43:53.359Z,451.75
2019-01-08T11:44:53.335Z,451.84
2019-01-08T11:45:53.313Z,448.29
2019-01-08T11:46:53.311Z,453.94
2019-01-08T11:47:53.306Z,450.85
2019-01-08T11:48:53.288Z,454.51
2019-01-08T11:49:53.297Z,444.48
2019-01-08T11:50:53.285Z,452.78
2019-01-08T11:51:53.258Z,458.28
2019-01-08T11:52:53.230Z,449.81
2019-01-08T11:53:53.228Z,454.72
2019-01-08T11:54:53.224Z,444.02
2019-01-08T11:55:53.213Z,448.13
2019-01-08T11:56:53.229Z,443.26
2019-01-08T11:57:53.194Z,448.65
2019-01-08T11:58:53.178Z,453.61
2019-01-08T11:59:53.203Z,443.93
2019-01-08T12:00:53.162Z,453.93
2019-01-08T12:01:57.403Z,450.12
2019-01-08T12:02:53.134Z,455.05
2019-01-08T12:03:53.120Z,447.01
2019-01-08T12:04:53.099Z,448.35
2019-01-08T12:05:53.097Z,450.70
2019-01-08T12:06:53.100Z,444.62
2019-01-08T12:07:53.100Z,447.02
2019-01-08T12:08:53.089Z,458.96
2019-01-08T12:09:53.062Z,444.95
2019-01-08T12:10:53.036Z,449.88
2019-01-08T12:11:53.041Z,446.64
2019-01-08T12:12:53.022Z,452.25
2019-01-08T12:13:53.030Z,454.69
2019-01-08T12:14:52.997Z,443.80
2019-01-08T12:15:52.987Z,456.74
2019-01-08T12:16:52.994Z,456.37
2019-01-08T12:17:52.964Z,445.92
2019-01-08T12:18:53.557Z,453.44
2019-01-08T12:19:52.950Z,446.28
2019-01-08T12:20:52.941Z,452.62
2019-01-08T12:21:52.931Z,453.97
2019-01-08T12:22:52.907Z,450.91
2019-01-08T12:23:52.915Z,447.63
2019-01-08T12:24:52.881Z,443.65
2019-01-08T12:25:52.877Z,442.70
2019-01-08T12:26:52.913Z,445.87
2019-01-08T12:27:52.859Z,443.33